Airfield :
LOGIN :

Register | Disclaimer

   EN    FR    IT 

 










Legend :    VFR   Marginal VFR   IFR   Intensive IFR   Very Intensive IFR
Visi :
Ceiling :
>= 8 km
>= 3000ft
5 to 8 km
1000 to 3000 ft
1500m to 5 km
500 to 1000 ft
800 to 1500m
200 to 500 ft
< 800m
< 200 ft
Symbols :   Thunderstorms  Fog  Heavy snow  Heavy precipitations  Wind > 20 kt
SIGMETs :     Misc.  Thunderstorms  Icing  Turbulence  Mountain Waves  Volcanic Ashes







- Airport Elevation : 306 ft
- IATA code : EMA
- Download approach charts


EGNX - Nottingham East Midlands

CURRENT METAR :
  • 220020Z 27021KT 9999 SCT026 BKN040 10/07 Q1002

EXPIRED METARs :
  • 212350Z 27020KT 9999 -RADZ SCT024 BKN041 10/08 Q1001 RERA
  • 212320Z 26022G35KT 7000 -RA BKN015 OVC026 11/09 Q1001
  • 212250Z 25019KT 9999 BKN018 12/09 Q1000
  • 212220Z 24016KT 9999 BKN022 12/09 Q0999
  • 212150Z 24016KT 9999 BKN019 12/09 Q0999

TAF TAF EGNX
Valid from the 22 at 00:00 until the 23 at 00:00 UTC


212300Z 2200/2224 26016KT 9999 FEW015 SCT030
TEMPO 2200/2215 27018G28KT 8000 -SHRA
PROB30
TEMPO 2200/2209 4500 SHRA BKN014
BECMG 2221/2224 23006KT
ATIS : +44 1332 852 852 (ext 3201)
No reported NOTAMs for that airfield.
1 SIGMET reported for the London FIR (EGTT) :
 
Severe turbulence
EGTT SIGMET 06 VALID 212200/220200 EGRR
EGTT LONDON FIR SEV TURB FCST WI N5040 E00128 - N5000 W00015 - N5000 W00200 - N4926 W00458 - N5125 W00714 - N5220 W00530 - N5500 W00530 - N5058 E00128 - N5040 E00128 SFC/FL060 MOV NE 05KT WKN=



MET'MAP, your aeronautical weather chart ! - Copyright ORBIFLY December 2007 - Disclaimer

ORBIFLY MET'MAP TEAM :

Programming & Development : Alexandra Zaïnal
Concept & Development : Baudouin d'Aumeries
Co-Development & Prog : Marc-Olivier Méhu
Technical & hardware support : Manuel Goepfert

Contact : metmap@orbifly.com




SOURCES & CREDITS :

   NOAA